sensor_id;sensor_type;location;lat;lon;timestamp;P1;durP1;ratioP1;P2;durP2;ratioP2
23362;SDS011;11853;48.080;11.960;2022-12-24T02:16:02;0.77;;;0.77;;
23362;SDS011;11853;48.080;11.960;2022-12-24T02:26:51;1.52;;;0.80;;
23362;SDS011;11853;48.080;11.960;2022-12-24T02:32:11;0.80;;;0.80;;
23362;SDS011;11853;48.080;11.960;2022-12-24T02:34:50;1.17;;;0.90;;
23362;SDS011;11853;48.080;11.960;2022-12-24T02:37:28;2.65;;;0.70;;
23362;SDS011;11853;48.080;11.960;2022-12-24T02:42:39;1.52;;;0.82;;
23362;SDS011;11853;48.080;11.960;2022-12-24T02:45:15;1.25;;;0.98;;
23362;SDS011;11853;48.080;11.960;2022-12-24T02:47:44;2.03;;;1.00;;
23362;SDS011;11853;48.080;11.960;2022-12-24T02:50:12;1.67;;;0.75;;
23362;SDS011;11853;48.080;11.960;2022-12-24T02:52:39;1.45;;;1.00;;
23362;SDS011;11853;48.080;11.960;2022-12-24T02:57:40;1.50;;;0.77;;
23362;SDS011;11853;48.080;11.960;2022-12-24T03:00:08;2.20;;;0.90;;
23362;SDS011;11853;48.080;11.960;2022-12-24T03:05:11;0.88;;;0.88;;
23362;SDS011;11853;48.080;11.960;2022-12-24T03:13:22;3.47;;;1.10;;
23362;SDS011;11853;48.080;11.960;2022-12-24T03:15:49;2.90;;;1.05;;
23362;SDS011;11853;48.080;11.960;2022-12-24T03:18:17;2.08;;;1.02;;
23362;SDS011;11853;48.080;11.960;2022-12-24T03:20:51;2.72;;;1.02;;
23362;SDS011;11853;48.080;11.960;2022-12-24T03:23:22;1.67;;;1.02;;
23362;SDS011;11853;48.080;11.960;2022-12-24T03:25:48;2.10;;;1.13;;
23362;SDS011;11853;48.080;11.960;2022-12-24T03:28:14;2.30;;;1.05;;
23362;SDS011;11853;48.080;11.960;2022-12-24T03:30:43;2.35;;;1.00;;
23362;SDS011;11853;48.080;11.960;2022-12-24T03:33:12;1.60;;;1.35;;
23362;SDS011;11853;48.080;11.960;2022-12-24T03:35:38;1.50;;;0.80;;
23362;SDS011;11853;48.080;11.960;2022-12-24T03:38:04;1.42;;;1.00;;
23362;SDS011;11853;48.080;11.960;2022-12-24T03:40:29;3.15;;;0.90;;
23362;SDS011;11853;48.080;11.960;2022-12-24T03:42:55;1.70;;;1.30;;
23362;SDS011;11853;48.080;11.960;2022-12-24T03:45:21;1.48;;;0.82;;
23362;SDS011;11853;48.080;11.960;2022-12-24T03:47:47;1.70;;;1.35;;
23362;SDS011;11853;48.080;11.960;2022-12-24T03:50:12;2.33;;;1.10;;
23362;SDS011;11853;48.080;11.960;2022-12-24T03:52:38;1.02;;;0.80;;
23362;SDS011;11853;48.080;11.960;2022-12-24T03:55:04;2.67;;;1.15;;
23362;SDS011;11853;48.080;11.960;2022-12-24T03:57:30;2.08;;;1.00;;
23362;SDS011;11853;48.080;11.960;2022-12-24T03:59:55;1.65;;;0.82;;
23362;SDS011;11853;48.080;11.960;2022-12-24T04:02:21;1.98;;;0.90;;
23362;SDS011;11853;48.080;11.960;2022-12-24T04:04:47;1.27;;;0.80;;
23362;SDS011;11853;48.080;11.960;2022-12-24T04:07:12;1.08;;;0.90;;
23362;SDS011;11853;48.080;11.960;2022-12-24T04:09:38;4.05;;;0.98;;
23362;SDS011;11853;48.080;11.960;2022-12-24T04:12:04;1.35;;;0.88;;
23362;SDS011;11853;48.080;11.960;2022-12-24T04:14:31;2.35;;;1.00;;
23362;SDS011;11853;48.080;11.960;2022-12-24T04:16:59;1.35;;;0.80;;
23362;SDS011;11853;48.080;11.960;2022-12-24T04:19:25;2.10;;;1.10;;
23362;SDS011;11853;48.080;11.960;2022-12-24T04:21:51;3.20;;;1.00;;
23362;SDS011;11853;48.080;11.960;2022-12-24T04:24:16;1.80;;;0.88;;
23362;SDS011;11853;48.080;11.960;2022-12-24T04:26:42;1.35;;;0.90;;
23362;SDS011;11853;48.080;11.960;2022-12-24T04:32:45;2.92;;;1.20;;
23362;SDS011;11853;48.080;11.960;2022-12-24T04:35:11;2.03;;;1.25;;
23362;SDS011;11853;48.080;11.960;2022-12-24T04:37:38;2.10;;;0.90;;
23362;SDS011;11853;48.080;11.960;2022-12-24T04:40:04;1.00;;;0.70;;
23362;SDS011;11853;48.080;11.960;2022-12-24T04:42:31;3.03;;;0.93;;
23362;SDS011;11853;48.080;11.960;2022-12-24T04:44:56;1.50;;;0.70;;
23362;SDS011;11853;48.080;11.960;2022-12-24T04:47:22;2.78;;;1.00;;
23362;SDS011;11853;48.080;11.960;2022-12-24T04:49:48;2.13;;;0.85;;
23362;SDS011;11853;48.080;11.960;2022-12-24T04:52:14;1.15;;;0.98;;
23362;SDS011;11853;48.080;11.960;2022-12-24T04:54:52;1.58;;;0.80;;
23362;SDS011;11853;48.080;11.960;2022-12-24T04:57:18;2.10;;;0.88;;
23362;SDS011;11853;48.080;11.960;2022-12-24T04:59:44;2.05;;;1.05;;
23362;SDS011;11853;48.080;11.960;2022-12-24T05:02:10;1.40;;;0.80;;
23362;SDS011;11853;48.080;11.960;2022-12-24T05:04:36;2.50;;;1.00;;
23362;SDS011;11853;48.080;11.960;2022-12-24T05:07:02;1.27;;;0.90;;
23362;SDS011;11853;48.080;11.960;2022-12-24T05:09:28;1.63;;;0.80;;
23362;SDS011;11853;48.080;11.960;2022-12-24T05:11:54;1.58;;;1.10;;
23362;SDS011;11853;48.080;11.960;2022-12-24T05:14:20;2.40;;;1.02;;
23362;SDS011;11853;48.080;11.960;2022-12-24T05:16:46;1.70;;;0.90;;
23362;SDS011;11853;48.080;11.960;2022-12-24T05:19:12;2.55;;;1.15;;
23362;SDS011;11853;48.080;11.960;2022-12-24T05:21:38;1.20;;;1.10;;
23362;SDS011;11853;48.080;11.960;2022-12-24T05:24:04;0.88;;;0.80;;
23362;SDS011;11853;48.080;11.960;2022-12-24T05:26:49;1.88;;;1.00;;
23362;SDS011;11853;48.080;11.960;2022-12-24T05:29:18;1.95;;;1.10;;
23362;SDS011;11853;48.080;11.960;2022-12-24T05:31:44;3.22;;;1.00;;
23362;SDS011;11853;48.080;11.960;2022-12-24T05:34:11;1.25;;;0.90;;
23362;SDS011;11853;48.080;11.960;2022-12-24T05:36:38;2.33;;;0.80;;
23362;SDS011;11853;48.080;11.960;2022-12-24T05:39:04;1.17;;;0.63;;
23362;SDS011;11853;48.080;11.960;2022-12-24T05:41:30;2.25;;;0.90;;
23362;SDS011;11853;48.080;11.960;2022-12-24T05:43:57;1.23;;;0.73;;
23362;SDS011;11853;48.080;11.960;2022-12-24T05:46:23;1.33;;;0.75;;
23362;SDS011;11853;48.080;11.960;2022-12-24T05:48:49;3.40;;;0.90;;
23362;SDS011;11853;48.080;11.960;2022-12-24T05:51:17;1.80;;;0.80;;
23362;SDS011;11853;48.080;11.960;2022-12-24T05:53:44;0.98;;;0.80;;
23362;SDS011;11853;48.080;11.960;2022-12-24T05:56:12;3.08;;;1.10;;
23362;SDS011;11853;48.080;11.960;2022-12-24T05:58:56;0.68;;;0.68;;
23362;SDS011;11853;48.080;11.960;2022-12-24T06:01:25;1.83;;;1.10;;
23362;SDS011;11853;48.080;11.960;2022-12-24T06:03:51;1.48;;;0.80;;
23362;SDS011;11853;48.080;11.960;2022-12-24T06:06:18;2.55;;;1.00;;
23362;SDS011;11853;48.080;11.960;2022-12-24T06:08:46;1.17;;;0.90;;
23362;SDS011;11853;48.080;11.960;2022-12-24T06:11:13;2.00;;;0.90;;
23362;SDS011;11853;48.080;11.960;2022-12-24T06:13:41;1.85;;;0.98;;
23362;SDS011;11853;48.080;11.960;2022-12-24T06:16:08;2.28;;;1.17;;
23362;SDS011;11853;48.080;11.960;2022-12-24T06:18:36;2.72;;;0.90;;
23362;SDS011;11853;48.080;11.960;2022-12-24T06:21:03;2.78;;;0.98;;
23362;SDS011;11853;48.080;11.960;2022-12-24T06:23:31;1.75;;;1.02;;
23362;SDS011;11853;48.080;11.960;2022-12-24T06:25:59;1.85;;;0.95;;
23362;SDS011;11853;48.080;11.960;2022-12-24T06:28:26;2.00;;;0.85;;
23362;SDS011;11853;48.080;11.960;2022-12-24T06:30:52;2.20;;;1.23;;
23362;SDS011;11853;48.080;11.960;2022-12-24T06:33:18;1.60;;;0.93;;
23362;SDS011;11853;48.080;11.960;2022-12-24T06:35:44;1.77;;;1.00;;
23362;SDS011;11853;48.080;11.960;2022-12-24T06:38:10;0.70;;;0.70;;
23362;SDS011;11853;48.080;11.960;2022-12-24T06:40:37;1.95;;;0.70;;
23362;SDS011;11853;48.080;11.960;2022-12-24T06:43:03;1.15;;;0.68;;
23362;SDS011;11853;48.080;11.960;2022-12-24T06:45:29;1.48;;;0.57;;
23362;SDS011;11853;48.080;11.960;2022-12-24T06:47:56;0.95;;;0.70;;
23362;SDS011;11853;48.080;11.960;2022-12-24T06:50:22;1.05;;;0.70;;
23362;SDS011;11853;48.080;11.960;2022-12-24T06:52:47;0.57;;;0.55;;
23362;SDS011;11853;48.080;11.960;2022-12-24T06:55:13;0.47;;;0.47;;
23362;SDS011;11853;48.080;11.960;2022-12-24T06:57:39;0.40;;;0.40;;
23362;SDS011;11853;48.080;11.960;2022-12-24T07:00:06;0.80;;;0.45;;
23362;SDS011;11853;48.080;11.960;2022-12-24T07:02:32;0.63;;;0.40;;
23362;SDS011;11853;48.080;11.960;2022-12-24T07:04:58;0.63;;;0.50;;
23362;SDS011;11853;48.080;11.960;2022-12-24T07:07:23;0.52;;;0.50;;
23362;SDS011;11853;48.080;11.960;2022-12-24T07:09:49;1.38;;;0.50;;
23362;SDS011;11853;48.080;11.960;2022-12-24T07:12:14;1.05;;;0.57;;
23362;SDS011;11853;48.080;11.960;2022-12-24T07:14:40;1.17;;;0.60;;
23362;SDS011;11853;48.080;11.960;2022-12-24T07:17:05;1.38;;;0.70;;
23362;SDS011;11853;48.080;11.960;2022-12-24T07:19:31;0.43;;;0.30;;
23362;SDS011;11853;48.080;11.960;2022-12-24T07:21:58;1.00;;;0.65;;
23362;SDS011;11853;48.080;11.960;2022-12-24T07:24:23;0.80;;;0.80;;
23362;SDS011;11853;48.080;11.960;2022-12-24T07:26:49;0.88;;;0.77;;
23362;SDS011;11853;48.080;11.960;2022-12-24T07:29:18;0.70;;;0.70;;
23362;SDS011;11853;48.080;11.960;2022-12-24T07:31:43;0.50;;;0.50;;
23362;SDS011;11853;48.080;11.960;2022-12-24T07:34:09;1.40;;;0.77;;
23362;SDS011;11853;48.080;11.960;2022-12-24T07:36:35;2.08;;;0.65;;
23362;SDS011;11853;48.080;11.960;2022-12-24T07:39:00;0.77;;;0.77;;
23362;SDS011;11853;48.080;11.960;2022-12-24T07:41:26;1.00;;;0.60;;
23362;SDS011;11853;48.080;11.960;2022-12-24T07:43:51;2.20;;;1.20;;
23362;SDS011;11853;48.080;11.960;2022-12-24T07:46:17;1.20;;;0.75;;
23362;SDS011;11853;48.080;11.960;2022-12-24T07:48:43;1.60;;;1.08;;
23362;SDS011;11853;48.080;11.960;2022-12-24T07:51:08;1.73;;;1.10;;
23362;SDS011;11853;48.080;11.960;2022-12-24T07:53:34;1.85;;;0.90;;
23362;SDS011;11853;48.080;11.960;2022-12-24T07:56:01;1.15;;;0.70;;
23362;SDS011;11853;48.080;11.960;2022-12-24T07:58:26;1.80;;;0.60;;
23362;SDS011;11853;48.080;11.960;2022-12-24T08:00:58;1.67;;;0.65;;
23362;SDS011;11853;48.080;11.960;2022-12-24T08:05:50;1.55;;;0.63;;
23362;SDS011;11853;48.080;11.960;2022-12-24T08:08:18;0.93;;;0.82;;
23362;SDS011;11853;48.080;11.960;2022-12-24T08:10:45;0.80;;;0.55;;
23362;SDS011;11853;48.080;11.960;2022-12-24T08:13:11;0.50;;;0.50;;
23362;SDS011;11853;48.080;11.960;2022-12-24T08:15:37;1.17;;;0.63;;
23362;SDS011;11853;48.080;11.960;2022-12-24T08:18:03;1.05;;;0.93;;
23362;SDS011;11853;48.080;11.960;2022-12-24T08:20:29;0.50;;;0.40;;
23362;SDS011;11853;48.080;11.960;2022-12-24T08:22:54;1.02;;;0.73;;
23362;SDS011;11853;48.080;11.960;2022-12-24T08:25:20;1.90;;;0.80;;
23362;SDS011;11853;48.080;11.960;2022-12-24T08:27:46;0.63;;;0.50;;
23362;SDS011;11853;48.080;11.960;2022-12-24T08:30:11;0.70;;;0.70;;
23362;SDS011;11853;48.080;11.960;2022-12-24T08:32:37;2.65;;;1.15;;
23362;SDS011;11853;48.080;11.960;2022-12-24T08:35:04;0.98;;;0.65;;
23362;SDS011;11853;48.080;11.960;2022-12-24T08:37:30;1.60;;;0.80;;
23362;SDS011;11853;48.080;11.960;2022-12-24T08:39:56;0.70;;;0.70;;
23362;SDS011;11853;48.080;11.960;2022-12-24T08:42:22;1.08;;;0.47;;
23362;SDS011;11853;48.080;11.960;2022-12-24T08:44:47;0.40;;;0.40;;
23362;SDS011;11853;48.080;11.960;2022-12-24T08:47:13;0.50;;;0.50;;
23362;SDS011;11853;48.080;11.960;2022-12-24T08:49:38;0.77;;;0.63;;
23362;SDS011;11853;48.080;11.960;2022-12-24T08:52:06;1.23;;;0.93;;
23362;SDS011;11853;48.080;11.960;2022-12-24T08:54:32;0.88;;;0.88;;
23362;SDS011;11853;48.080;11.960;2022-12-24T08:56:59;2.80;;;2.00;;
23362;SDS011;11853;48.080;11.960;2022-12-24T08:59:25;2.05;;;1.23;;
23362;SDS011;11853;48.080;11.960;2022-12-24T09:01:50;1.05;;;0.95;;
23362;SDS011;11853;48.080;11.960;2022-12-24T09:04:16;0.98;;;0.98;;
23362;SDS011;11853;48.080;11.960;2022-12-24T09:06:41;1.58;;;0.88;;
23362;SDS011;11853;48.080;11.960;2022-12-24T09:09:07;0.60;;;0.60;;
23362;SDS011;11853;48.080;11.960;2022-12-24T09:11:33;1.05;;;0.68;;
23362;SDS011;11853;48.080;11.960;2022-12-24T09:14:00;2.70;;;0.70;;
23362;SDS011;11853;48.080;11.960;2022-12-24T09:16:26;3.20;;;0.77;;
23362;SDS011;11853;48.080;11.960;2022-12-24T09:18:51;0.95;;;0.52;;
23362;SDS011;11853;48.080;11.960;2022-12-24T09:21:17;1.85;;;0.80;;
23362;SDS011;11853;48.080;11.960;2022-12-24T09:23:44;2.17;;;0.85;;
23362;SDS011;11853;48.080;11.960;2022-12-24T09:26:16;1.88;;;0.68;;
23362;SDS011;11853;48.080;11.960;2022-12-24T09:28:49;0.85;;;0.55;;
23362;SDS011;11853;48.080;11.960;2022-12-24T09:31:15;2.00;;;0.80;;
23362;SDS011;11853;48.080;11.960;2022-12-24T09:33:42;1.60;;;0.52;;
23362;SDS011;11853;48.080;11.960;2022-12-24T09:36:10;2.80;;;0.80;;
23362;SDS011;11853;48.080;11.960;2022-12-24T09:38:39;1.90;;;0.75;;
23362;SDS011;11853;48.080;11.960;2022-12-24T09:41:11;2.10;;;0.70;;
23362;SDS011;11853;48.080;11.960;2022-12-24T09:43:46;2.10;;;0.98;;
23362;SDS011;11853;48.080;11.960;2022-12-24T09:46:19;2.10;;;0.80;;
23362;SDS011;11853;48.080;11.960;2022-12-24T09:48:52;1.52;;;0.77;;
23362;SDS011;11853;48.080;11.960;2022-12-24T09:53:58;1.42;;;0.85;;
23362;SDS011;11853;48.080;11.960;2022-12-24T09:56:30;1.55;;;0.63;;
23362;SDS011;11853;48.080;11.960;2022-12-24T09:59:03;2.53;;;0.95;;
23362;SDS011;11853;48.080;11.960;2022-12-24T10:01:34;2.22;;;0.90;;
23362;SDS011;11853;48.080;11.960;2022-12-24T10:04:11;1.17;;;1.08;;
23362;SDS011;11853;48.080;11.960;2022-12-24T10:06:42;1.13;;;0.60;;
23362;SDS011;11853;48.080;11.960;2022-12-24T10:23:46;2.10;;;0.82;;
23362;SDS011;11853;48.080;11.960;2022-12-24T10:26:17;1.98;;;1.27;;
23362;SDS011;11853;48.080;11.960;2022-12-24T10:28:55;1.92;;;0.98;;
23362;SDS011;11853;48.080;11.960;2022-12-24T10:31:25;1.77;;;1.10;;
23362;SDS011;11853;48.080;11.960;2022-12-24T10:34:02;3.88;;;1.33;;
23362;SDS011;11853;48.080;11.960;2022-12-24T10:36:36;1.70;;;0.95;;
23362;SDS011;11853;48.080;11.960;2022-12-24T10:39:02;1.05;;;0.70;;
23362;SDS011;11853;48.080;11.960;2022-12-24T10:41:28;1.67;;;0.90;;
23362;SDS011;11853;48.080;11.960;2022-12-24T10:43:56;2.03;;;0.80;;
23362;SDS011;11853;48.080;11.960;2022-12-24T10:46:28;1.98;;;1.10;;
23362;SDS011;11853;48.080;11.960;2022-12-24T10:49:00;2.17;;;1.00;;
23362;SDS011;11853;48.080;11.960;2022-12-24T10:54:19;1.70;;;1.13;;
23362;SDS011;11853;48.080;11.960;2022-12-24T10:56:51;2.85;;;1.23;;
23362;SDS011;11853;48.080;11.960;2022-12-24T11:02:30;2.85;;;2.05;;
23362;SDS011;11853;48.080;11.960;2022-12-24T11:04:58;2.17;;;1.30;;
23362;SDS011;11853;48.080;11.960;2022-12-24T11:07:25;1.73;;;1.58;;
23362;SDS011;11853;48.080;11.960;2022-12-24T11:09:59;2.17;;;1.40;;
23362;SDS011;11853;48.080;11.960;2022-12-24T11:12:34;1.45;;;1.35;;
23362;SDS011;11853;48.080;11.960;2022-12-24T11:15:04;3.70;;;2.85;;
23362;SDS011;11853;48.080;11.960;2022-12-24T11:17:40;2.38;;;2.17;;
23362;SDS011;11853;48.080;11.960;2022-12-24T11:20:05;3.75;;;2.60;;
23362;SDS011;11853;48.080;11.960;2022-12-24T11:22:41;1.65;;;1.55;;
23362;SDS011;11853;48.080;11.960;2022-12-24T11:25:20;1.55;;;1.33;;
23362;SDS011;11853;48.080;11.960;2022-12-24T11:27:49;2.67;;;1.35;;
23362;SDS011;11853;48.080;11.960;2022-12-24T11:32:45;3.03;;;2.65;;
23362;SDS011;11853;48.080;11.960;2022-12-24T11:35:24;2.03;;;1.63;;
23362;SDS011;11853;48.080;11.960;2022-12-24T11:38:14;3.28;;;2.50;;
23362;SDS011;11853;48.080;11.960;2022-12-24T11:43:12;2.45;;;1.27;;
23362;SDS011;11853;48.080;11.960;2022-12-24T11:45:46;1.85;;;1.10;;
23362;SDS011;11853;48.080;11.960;2022-12-24T11:48:23;2.10;;;0.93;;
23362;SDS011;11853;48.080;11.960;2022-12-24T11:50:56;2.78;;;1.10;;
23362;SDS011;11853;48.080;11.960;2022-12-24T11:53:24;3.85;;;1.25;;
23362;SDS011;11853;48.080;11.960;2022-12-24T11:56:14;1.25;;;0.80;;
23362;SDS011;11853;48.080;11.960;2022-12-24T11:58:52;1.98;;;1.08;;
23362;SDS011;11853;48.080;11.960;2022-12-24T12:04:20;1.52;;;0.70;;
23362;SDS011;11853;48.080;11.960;2022-12-24T12:06:49;2.42;;;1.08;;
23362;SDS011;11853;48.080;11.960;2022-12-24T12:09:20;3.50;;;2.55;;
23362;SDS011;11853;48.080;11.960;2022-12-24T12:15:38;2.95;;;1.58;;
23362;SDS011;11853;48.080;11.960;2022-12-24T12:17:50;2.73;;;2.20;;
23362;SDS011;11853;48.080;11.960;2022-12-24T12:20:29;3.00;;;2.20;;
23362;SDS011;11853;48.080;11.960;2022-12-24T12:23:03;3.03;;;1.75;;
23362;SDS011;11853;48.080;11.960;2022-12-24T12:25:33;2.63;;;0.98;;
23362;SDS011;11853;48.080;11.960;2022-12-24T12:28:07;2.58;;;1.20;;
23362;SDS011;11853;48.080;11.960;2022-12-24T12:30:42;1.65;;;1.45;;
23362;SDS011;11853;48.080;11.960;2022-12-24T12:33:14;1.98;;;1.20;;
23362;SDS011;11853;48.080;11.960;2022-12-24T12:36:11;3.17;;;1.15;;
23362;SDS011;11853;48.080;11.960;2022-12-24T12:38:41;1.45;;;0.60;;
23362;SDS011;11853;48.080;11.960;2022-12-24T12:46:37;1.73;;;0.90;;
23362;SDS011;11853;48.080;11.960;2022-12-24T12:52:03;1.92;;;0.75;;
23362;SDS011;11853;48.080;11.960;2022-12-24T12:57:42;3.97;;;1.52;;
23362;SDS011;11853;48.080;11.960;2022-12-24T13:00:11;2.38;;;1.00;;
23362;SDS011;11853;48.080;11.960;2022-12-24T13:02:51;3.03;;;1.10;;
23362;SDS011;11853;48.080;11.960;2022-12-24T13:10:53;3.13;;;1.75;;
23362;SDS011;11853;48.080;11.960;2022-12-24T13:21:54;10.23;;;6.32;;
23362;SDS011;11853;48.080;11.960;2022-12-24T13:24:27;10.60;;;6.45;;
23362;SDS011;11853;48.080;11.960;2022-12-24T13:27:05;18.13;;;10.55;;
23362;SDS011;11853;48.080;11.960;2022-12-24T13:34:53;9.82;;;6.28;;
23362;SDS011;11853;48.080;11.960;2022-12-24T13:47:55;2.78;;;1.90;;
23362;SDS011;11853;48.080;11.960;2022-12-24T13:50:39;1.63;;;1.10;;
23362;SDS011;11853;48.080;11.960;2022-12-24T13:55:53;5.47;;;2.58;;
23362;SDS011;11853;48.080;11.960;2022-12-24T13:58:22;3.72;;;1.80;;
23362;SDS011;11853;48.080;11.960;2022-12-24T14:00:53;5.50;;;2.20;;
23362;SDS011;11853;48.080;11.960;2022-12-24T14:05:56;1.70;;;1.20;;
23362;SDS011;11853;48.080;11.960;2022-12-24T14:08:27;4.45;;;1.70;;
23362;SDS011;11853;48.080;11.960;2022-12-24T14:11:09;5.22;;;1.40;;
23362;SDS011;11853;48.080;11.960;2022-12-24T14:18:42;4.55;;;3.10;;
23362;SDS011;11853;48.080;11.960;2022-12-24T14:21:53;5.55;;;3.00;;
23362;SDS011;11853;48.080;11.960;2022-12-24T14:24:21;4.68;;;2.75;;
23362;SDS011;11853;48.080;11.960;2022-12-24T14:26:53;3.50;;;1.80;;
23362;SDS011;11853;48.080;11.960;2022-12-24T14:31:57;4.60;;;2.15;;
23362;SDS011;11853;48.080;11.960;2022-12-24T14:34:24;4.00;;;1.88;;
23362;SDS011;11853;48.080;11.960;2022-12-24T14:36:51;4.50;;;2.53;;
23362;SDS011;11853;48.080;11.960;2022-12-24T14:39:27;3.67;;;1.70;;
23362;SDS011;11853;48.080;11.960;2022-12-24T14:42:03;4.50;;;2.40;;
23362;SDS011;11853;48.080;11.960;2022-12-24T14:47:32;3.55;;;2.22;;
23362;SDS011;11853;48.080;11.960;2022-12-24T14:52:57;4.63;;;2.50;;
23362;SDS011;11853;48.080;11.960;2022-12-24T14:55:45;6.47;;;3.50;;
23362;SDS011;11853;48.080;11.960;2022-12-24T14:58:23;3.85;;;3.45;;
23362;SDS011;11853;48.080;11.960;2022-12-24T15:00:49;2.45;;;1.95;;
23362;SDS011;11853;48.080;11.960;2022-12-24T15:03:18;1.70;;;1.50;;
23362;SDS011;11853;48.080;11.960;2022-12-24T15:05:49;3.20;;;1.40;;
23362;SDS011;11853;48.080;11.960;2022-12-24T15:08:17;2.10;;;1.70;;
23362;SDS011;11853;48.080;11.960;2022-12-24T15:10:51;2.72;;;1.73;;
23362;SDS011;11853;48.080;11.960;2022-12-24T15:16:01;3.25;;;2.40;;
23362;SDS011;11853;48.080;11.960;2022-12-24T15:18:30;7.43;;;4.80;;
23362;SDS011;11853;48.080;11.960;2022-12-24T15:20:59;6.57;;;4.30;;
23362;SDS011;11853;48.080;11.960;2022-12-24T15:23:32;3.28;;;2.88;;
23362;SDS011;11853;48.080;11.960;2022-12-24T15:26:43;5.47;;;3.80;;
23362;SDS011;11853;48.080;11.960;2022-12-24T15:28:52;6.00;;;4.30;;
23362;SDS011;11853;48.080;11.960;2022-12-24T15:31:21;7.85;;;5.18;;
23362;SDS011;11853;48.080;11.960;2022-12-24T15:33:49;7.43;;;5.72;;
23362;SDS011;11853;48.080;11.960;2022-12-24T15:36:22;17.00;;;13.13;;
23362;SDS011;11853;48.080;11.960;2022-12-24T15:39:07;15.68;;;13.50;;
23362;SDS011;11853;48.080;11.960;2022-12-24T15:41:42;10.25;;;8.60;;
23362;SDS011;11853;48.080;11.960;2022-12-24T15:44:32;8.77;;;7.00;;
23362;SDS011;11853;48.080;11.960;2022-12-24T15:46:59;7.35;;;6.43;;
23362;SDS011;11853;48.080;11.960;2022-12-24T15:49:30;8.95;;;7.70;;
23362;SDS011;11853;48.080;11.960;2022-12-24T15:52:18;8.35;;;6.30;;
23362;SDS011;11853;48.080;11.960;2022-12-24T15:54:48;8.07;;;4.88;;
23362;SDS011;11853;48.080;11.960;2022-12-24T15:57:24;6.30;;;4.73;;
23362;SDS011;11853;48.080;11.960;2022-12-24T15:59:55;4.85;;;3.50;;
23362;SDS011;11853;48.080;11.960;2022-12-24T16:08:38;2.17;;;1.60;;
23362;SDS011;11853;48.080;11.960;2022-12-24T16:13:42;4.18;;;1.85;;
23362;SDS011;11853;48.080;11.960;2022-12-24T16:16:14;1.75;;;1.38;;
23362;SDS011;11853;48.080;11.960;2022-12-24T16:21:22;1.90;;;1.55;;
23362;SDS011;11853;48.080;11.960;2022-12-24T16:23:53;3.08;;;2.28;;
23362;SDS011;11853;48.080;11.960;2022-12-24T16:26:20;3.42;;;2.13;;
23362;SDS011;11853;48.080;11.960;2022-12-24T16:28:46;3.05;;;1.90;;
23362;SDS011;11853;48.080;11.960;2022-12-24T16:31:19;5.13;;;3.28;;
23362;SDS011;11853;48.080;11.960;2022-12-24T16:33:56;5.25;;;3.70;;
23362;SDS011;11853;48.080;11.960;2022-12-24T16:36:22;3.88;;;2.47;;
23362;SDS011;11853;48.080;11.960;2022-12-24T16:38:48;3.80;;;3.20;;
23362;SDS011;11853;48.080;11.960;2022-12-24T16:41:32;2.75;;;2.55;;
23362;SDS011;11853;48.080;11.960;2022-12-24T16:44:17;3.67;;;3.00;;
23362;SDS011;11853;48.080;11.960;2022-12-24T16:46:43;5.25;;;3.80;;
23362;SDS011;11853;48.080;11.960;2022-12-24T16:49:18;5.85;;;3.70;;
23362;SDS011;11853;48.080;11.960;2022-12-24T16:51:45;4.50;;;2.92;;
23362;SDS011;11853;48.080;11.960;2022-12-24T16:54:14;3.60;;;2.88;;
23362;SDS011;11853;48.080;11.960;2022-12-24T16:56:46;5.78;;;4.65;;
23362;SDS011;11853;48.080;11.960;2022-12-24T16:59:19;8.38;;;6.30;;
23362;SDS011;11853;48.080;11.960;2022-12-24T17:01:46;6.88;;;5.40;;
23362;SDS011;11853;48.080;11.960;2022-12-24T17:04:12;3.45;;;3.15;;
23362;SDS011;11853;48.080;11.960;2022-12-24T17:06:39;2.35;;;2.05;;
23362;SDS011;11853;48.080;11.960;2022-12-24T17:09:04;2.05;;;1.90;;
23362;SDS011;11853;48.080;11.960;2022-12-24T17:11:30;1.70;;;1.50;;
23362;SDS011;11853;48.080;11.960;2022-12-24T17:13:56;2.50;;;1.83;;
23362;SDS011;11853;48.080;11.960;2022-12-24T17:16:23;2.13;;;1.40;;
23362;SDS011;11853;48.080;11.960;2022-12-24T17:18:48;1.38;;;1.27;;
23362;SDS011;11853;48.080;11.960;2022-12-24T17:21:16;2.40;;;2.20;;
23362;SDS011;11853;48.080;11.960;2022-12-24T17:23:42;6.78;;;4.57;;
23362;SDS011;11853;48.080;11.960;2022-12-24T17:26:10;6.35;;;3.42;;
23362;SDS011;11853;48.080;11.960;2022-12-24T17:28:37;4.20;;;2.85;;
23362;SDS011;11853;48.080;11.960;2022-12-24T17:31:09;2.80;;;2.10;;
23362;SDS011;11853;48.080;11.960;2022-12-24T17:33:36;2.67;;;1.90;;
23362;SDS011;11853;48.080;11.960;2022-12-24T17:36:02;3.42;;;2.10;;
23362;SDS011;11853;48.080;11.960;2022-12-24T17:38:28;2.10;;;2.00;;
23362;SDS011;11853;48.080;11.960;2022-12-24T17:41:04;3.60;;;2.13;;
23362;SDS011;11853;48.080;11.960;2022-12-24T17:43:32;3.75;;;2.40;;
23362;SDS011;11853;48.080;11.960;2022-12-24T17:45:58;7.45;;;5.10;;
23362;SDS011;11853;48.080;11.960;2022-12-24T17:48:28;8.07;;;5.45;;
23362;SDS011;11853;48.080;11.960;2022-12-24T17:50:53;7.10;;;4.95;;
23362;SDS011;11853;48.080;11.960;2022-12-24T17:53:19;4.05;;;3.50;;
23362;SDS011;11853;48.080;11.960;2022-12-24T17:55:44;4.13;;;3.17;;
23362;SDS011;11853;48.080;11.960;2022-12-24T17:58:11;3.30;;;3.00;;
23362;SDS011;11853;48.080;11.960;2022-12-24T18:00:38;3.58;;;2.97;;
23362;SDS011;11853;48.080;11.960;2022-12-24T18:03:04;3.13;;;2.92;;
23362;SDS011;11853;48.080;11.960;2022-12-24T18:05:32;3.47;;;2.97;;
23362;SDS011;11853;48.080;11.960;2022-12-24T18:07:58;3.13;;;2.92;;
23362;SDS011;11853;48.080;11.960;2022-12-24T18:10:23;3.72;;;2.88;;
23362;SDS011;11853;48.080;11.960;2022-12-24T18:12:49;7.90;;;5.82;;
23362;SDS011;11853;48.080;11.960;2022-12-24T18:15:17;9.88;;;6.72;;
23362;SDS011;11853;48.080;11.960;2022-12-24T18:17:48;9.00;;;6.30;;
23362;SDS011;11853;48.080;11.960;2022-12-24T18:20:18;7.72;;;5.70;;
23362;SDS011;11853;48.080;11.960;2022-12-24T18:22:44;7.22;;;4.68;;
23362;SDS011;11853;48.080;11.960;2022-12-24T18:25:10;4.75;;;4.00;;
23362;SDS011;11853;48.080;11.960;2022-12-24T18:27:36;4.97;;;4.13;;
23362;SDS011;11853;48.080;11.960;2022-12-24T18:30:02;4.63;;;3.78;;
23362;SDS011;11853;48.080;11.960;2022-12-24T18:32:30;6.78;;;4.38;;
23362;SDS011;11853;48.080;11.960;2022-12-24T18:34:56;6.22;;;5.63;;
23362;SDS011;11853;48.080;11.960;2022-12-24T18:37:22;8.65;;;5.85;;
23362;SDS011;11853;48.080;11.960;2022-12-24T18:39:47;4.88;;;4.43;;
23362;SDS011;11853;48.080;11.960;2022-12-24T18:42:13;4.38;;;3.60;;
23362;SDS011;11853;48.080;11.960;2022-12-24T18:44:42;4.57;;;4.15;;
23362;SDS011;11853;48.080;11.960;2022-12-24T18:47:08;4.15;;;3.70;;
23362;SDS011;11853;48.080;11.960;2022-12-24T18:49:34;3.95;;;3.65;;
23362;SDS011;11853;48.080;11.960;2022-12-24T18:52:03;8.18;;;6.00;;
23362;SDS011;11853;48.080;11.960;2022-12-24T18:54:30;15.30;;;10.40;;
23362;SDS011;11853;48.080;11.960;2022-12-24T18:56:56;11.20;;;8.43;;
23362;SDS011;11853;48.080;11.960;2022-12-24T18:59:21;8.07;;;6.78;;
23362;SDS011;11853;48.080;11.960;2022-12-24T19:01:47;11.82;;;8.50;;
23362;SDS011;11853;48.080;11.960;2022-12-24T19:04:12;10.60;;;8.40;;
23362;SDS011;11853;48.080;11.960;2022-12-24T19:06:41;10.45;;;8.77;;
23362;SDS011;11853;48.080;11.960;2022-12-24T19:09:07;10.95;;;6.45;;
23362;SDS011;11853;48.080;11.960;2022-12-24T19:11:34;7.53;;;5.10;;
23362;SDS011;11853;48.080;11.960;2022-12-24T19:14:01;5.18;;;4.20;;
23362;SDS011;11853;48.080;11.960;2022-12-24T19:16:28;6.22;;;4.30;;
23362;SDS011;11853;48.080;11.960;2022-12-24T19:18:54;13.77;;;11.50;;